Time;durP1;ratioP1;P1;durP2;ratioP2;P2;SDS_P1;SDS_P2;PMS_P1;PMS_P2;Temp;Humidity;BMP_temperature;BMP_pressure;BME280_temperature;BME280_humidity;BME280_pressure;Samples;Min_cycle;Max_cycle;Signal;HPM_P1;HPM_P2
2023/05/07 00:00:21;;;;;;;3.87;1.80;;;12.70;99.90;;;;;;6185210;23;20095;-81
2023/05/07 00:02:47;;;;;;;2.40;1.13;;;12.70;99.90;;;;;;6158857;23;20017;-81
2023/05/07 00:05:12;;;;;;;2.10;1.38;;;12.70;99.90;;;;;;6158135;23;20023;-82
2023/05/07 00:07:38;;;;;;;2.23;1.27;;;12.60;99.90;;;;;;6185133;23;20039;-81
2023/05/07 00:10:06;;;;;;;2.40;1.63;;;12.60;99.90;;;;;;6123709;23;20017;-81
2023/05/07 00:12:33;;;;;;;1.30;0.80;;;12.60;99.90;;;;;;6124524;23;20026;-81
2023/05/07 00:15:01;;;;;;;1.10;1.00;;;12.50;99.90;;;;;;6148687;23;20339;-82
2023/05/07 00:17:27;;;;;;;1.50;1.40;;;12.50;99.90;;;;;;6126203;23;20018;-81
2023/05/07 00:19:52;;;;;;;3.63;1.40;;;12.50;99.90;;;;;;6124183;23;20061;-81
2023/05/07 00:22:18;;;;;;;3.40;1.67;;;12.50;99.90;;;;;;6099586;23;20399;-81
2023/05/07 00:24:44;;;;;;;2.93;1.33;;;12.40;99.90;;;;;;6124574;23;20025;-81
2023/05/07 00:27:09;;;;;;;3.13;1.57;;;12.40;99.90;;;;;;6125464;23;20327;-81
2023/05/07 00:29:36;;;;;;;1.83;1.30;;;12.40;99.90;;;;;;6124399;23;20018;-81
2023/05/07 00:32:02;;;;;;;;;;;12.40;99.90;;;;;;6125854;23;20076;-81
2023/05/07 00:34:27;;;;;;;2.83;1.20;;;12.40;99.90;;;;;;6125507;23;19973;-81
2023/05/07 00:36:53;;;;;;;1.20;0.90;;;12.30;99.90;;;;;;6124326;23;20029;-81
2023/05/07 00:39:18;;;;;;;1.47;1.37;;;12.30;99.90;;;;;;6125357;23;20081;-81
2023/05/07 00:41:44;;;;;;;1.83;0.90;;;12.30;99.90;;;;;;6125829;23;20510;-81
2023/05/07 00:44:10;;;;;;;2.40;1.37;;;12.30;99.90;;;;;;6123833;23;20029;-81
2023/05/07 00:46:36;;;;;;;2.03;1.60;;;12.30;99.90;;;;;;6125969;23;20041;-81
2023/05/07 00:49:02;;;;;;;1.57;0.87;;;12.20;99.90;;;;;;6125118;23;20022;-81
2023/05/07 00:51:30;;;;;;;6.03;1.52;;;12.20;99.90;;;;;;6124391;23;20507;-81
2023/05/07 00:53:56;;;;;;;2.20;1.40;;;12.20;99.90;;;;;;6124299;23;20024;-81
2023/05/07 00:56:22;;;;;;;2.03;1.40;;;12.10;99.90;;;;;;6123867;23;20089;-81
2023/05/07 00:58:49;;;;;;;3.10;1.40;;;12.10;99.90;;;;;;6099981;23;20078;-81
2023/05/07 01:01:18;;;;;;;2.88;1.80;;;12.10;99.90;;;;;;6099522;23;20022;-82
2023/05/07 01:03:44;;;;;;;3.47;1.60;;;12.00;99.90;;;;;;6124152;23;20022;-81
2023/05/07 01:06:12;;;;;;;2.92;1.83;;;12.00;99.90;;;;;;6123533;23;20102;-81
2023/05/07 01:08:39;;;;;;;2.03;1.52;;;11.90;99.90;;;;;;6101694;23;20120;-81
2023/05/07 01:11:07;;;;;;;3.35;2.20;;;11.90;99.90;;;;;;6148531;23;20025;-81
2023/05/07 01:13:34;;;;;;;2.58;1.23;;;11.80;99.90;;;;;;6156880;23;20021;-81
2023/05/07 01:16:00;;;;;;;2.55;1.58;;;11.80;99.90;;;;;;6156968;23;20461;-81
2023/05/07 01:18:26;;;;;;;2.43;1.50;;;11.80;99.90;;;;;;6156352;23;20018;-81
2023/05/07 01:20:53;;;;;;;4.20;2.05;;;11.70;99.90;;;;;;6106731;23;20052;-81
2023/05/07 01:23:18;;;;;;;;;;;11.70;99.90;;;;;;6155443;23;20018;-81
2023/05/07 01:25:51;;;;;;;2.10;1.30;;;11.70;99.90;;;;;;6155150;23;19916;-81
2023/05/07 01:28:17;;;;;;;2.92;1.67;;;11.70;99.90;;;;;;6156438;23;20068;-81
2023/05/07 01:30:47;;;;;;;4.53;1.77;;;11.60;99.90;;;;;;6156960;23;20025;-81
2023/05/07 01:33:18;;;;;;;2.72;1.33;;;11.60;99.90;;;;;;6154611;23;20018;-81
2023/05/07 01:35:48;;;;;;;2.90;1.17;;;11.60;99.90;;;;;;6130994;23;20013;-81
2023/05/07 01:38:14;;;;;;;2.80;1.10;;;11.60;99.90;;;;;;6154743;23;20343;-81
2023/05/07 01:40:40;;;;;;;4.55;1.63;;;11.50;99.90;;;;;;6155306;23;20064;-81
2023/05/07 01:43:06;;;;;;;2.15;1.40;;;11.40;99.90;;;;;;6156200;23;20485;-84
2023/05/07 01:45:33;;;;;;;2.58;2.03;;;10.50;99.90;;;;;;6155070;23;20040;-81
2023/05/07 01:48:00;;;;;;;5.18;1.60;;;11.40;99.90;;;;;;6156506;23;20064;-81
2023/05/07 01:50:27;;;;;;;3.55;1.92;;;11.40;99.90;;;;;;6156264;23;20024;-81
2023/05/07 01:52:53;;;;;;;3.78;2.42;;;11.40;99.90;;;;;;6130534;23;20077;-81
2023/05/07 01:55:19;;;;;;;2.35;1.60;;;11.30;99.90;;;;;;6155956;23;20342;-81
2023/05/07 01:57:44;;;;;;;2.00;1.33;;;11.30;99.90;;;;;;6106734;23;20017;-81
2023/05/07 02:00:10;;;;;;;2.83;1.43;;;11.30;99.90;;;;;;6156244;23;20020;-85
2023/05/07 02:02:37;;;;;;;2.10;1.67;;;11.30;99.90;;;;;;6154739;23;20076;-81
2023/05/07 02:05:04;;;;;;;2.80;1.45;;;11.20;99.90;;;;;;6155057;23;20022;-81
2023/05/07 02:07:29;;;;;;;3.15;1.88;;;11.20;99.90;;;;;;6154049;23;20013;-81
2023/05/07 02:09:55;;;;;;;2.53;1.43;;;11.20;99.90;;;;;;6130010;23;20029;-81
2023/05/07 02:12:21;;;;;;;2.53;1.73;;;11.20;99.90;;;;;;6156100;23;20021;-81
2023/05/07 02:14:47;;;;;;;3.10;2.40;;;11.20;99.90;;;;;;6155023;23;20104;-81
2023/05/07 02:17:13;;;;;;;3.07;1.10;;;11.20;99.90;;;;;;6129603;23;20055;-83
2023/05/07 02:19:39;;;;;;;2.17;0.95;;;11.10;99.90;;;;;;6155817;23;20018;-81
2023/05/07 02:22:05;;;;;;;2.87;1.57;;;11.10;99.90;;;;;;6130436;23;20018;-81
2023/05/07 02:24:30;;;;;;;3.90;2.00;;;11.10;99.90;;;;;;6130070;23;20021;-81
2023/05/07 02:26:56;;;;;;;5.47;1.63;;;11.10;99.90;;;;;;6156487;23;20056;-81
2023/05/07 02:29:22;;;;;;;3.23;1.60;;;11.10;99.90;;;;;;6155734;23;20028;-81
2023/05/07 02:31:52;;;;;;;3.53;1.97;;;11.00;99.90;;;;;;6156205;23;20450;-81
2023/05/07 02:34:19;;;;;;;2.85;2.05;;;11.00;99.90;;;;;;6155908;23;20021;-81
2023/05/07 02:36:45;;;;;;;2.55;1.33;;;11.00;99.90;;;;;;6156128;23;20014;-80
2023/05/07 02:39:11;;;;;;;5.10;2.40;;;11.00;99.90;;;;;;6130025;23;20415;-81
2023/05/07 02:41:37;;;;;;;3.95;1.98;;;11.00;99.90;;;;;;6129749;23;20022;-81
2023/05/07 02:44:03;;;;;;;3.00;1.57;;;11.00;99.90;;;;;;6130255;23;20076;-81
2023/05/07 02:46:29;;;;;;;4.70;1.73;;;11.00;99.90;;;;;;6155329;23;20092;-81
2023/05/07 02:48:55;;;;;;;4.72;2.38;;;10.90;99.90;;;;;;6154808;23;20018;-81
2023/05/07 02:51:21;;;;;;;3.60;1.80;;;10.90;99.90;;;;;;6155694;23;20021;-81
2023/05/07 02:53:47;;;;;;;3.45;2.15;;;10.90;99.90;;;;;;6156058;23;20017;-81
2023/05/07 02:56:13;;;;;;;3.90;2.07;;;10.90;99.90;;;;;;6156096;23;20164;-81
2023/05/07 02:58:39;;;;;;;3.97;2.10;;;10.80;99.90;;;;;;6155626;23;20100;-80
2023/05/07 03:01:05;;;;;;;2.73;2.00;;;10.90;99.90;;;;;;6105448;23;20101;-81
2023/05/07 03:03:31;;;;;;;4.15;1.85;;;10.90;99.90;;;;;;6155499;23;20017;-81
2023/05/07 03:06:01;;;;;;;3.00;1.70;;;10.80;99.90;;;;;;6155892;23;20061;-80
2023/05/07 03:08:27;;;;;;;4.68;2.63;;;10.80;99.90;;;;;;6154043;23;20347;-81
2023/05/07 03:10:52;;;;;;;3.00;2.50;;;10.70;99.90;;;;;;6173528;23;20047;-81
2023/05/07 03:13:18;;;;;;;4.00;2.33;;;10.70;99.90;;;;;;6185519;23;20450;-84
2023/05/07 03:15:44;;;;;;;5.37;2.67;;;10.70;99.90;;;;;;6158931;23;20013;-81
2023/05/07 03:18:10;;;;;;;3.13;2.43;;;10.70;99.90;;;;;;6134484;23;20020;-81
2023/05/07 03:20:36;;;;;;;3.15;2.25;;;10.70;99.90;;;;;;6158752;23;20013;-81
2023/05/07 03:23:02;;;;;;;4.03;1.95;;;10.70;99.90;;;;;;6159178;23;20434;-80
2023/05/07 03:25:29;;;;;;;3.25;1.70;;;10.70;99.90;;;;;;6158748;23;20021;-81
2023/05/07 03:27:55;;;;;;;4.28;2.03;;;10.70;99.90;;;;;;6134884;23;20024;-81
2023/05/07 03:30:21;;;;;;;3.88;2.15;;;10.70;99.90;;;;;;6158926;23;20060;-84
2023/05/07 03:32:47;;;;;;;6.43;2.73;;;10.70;99.90;;;;;;6158995;23;20461;-81
2023/05/07 03:35:13;;;;;;;8.00;3.37;;;10.70;99.90;;;;;;6134555;23;20327;-81
2023/05/07 03:37:39;;;;;;;4.10;1.85;;;10.60;99.90;;;;;;6184876;23;20021;-80
2023/05/07 03:40:05;;;;;;;4.85;2.10;;;10.60;99.90;;;;;;6185606;23;20019;-80
2023/05/07 03:42:31;;;;;;;3.08;1.77;;;10.60;99.90;;;;;;6158617;23;20398;-81
2023/05/07 03:44:57;;;;;;;3.43;2.40;;;10.60;99.90;;;;;;6159179;23;20048;-81
2023/05/07 03:47:22;;;;;;;4.53;1.83;;;10.60;99.90;;;;;;6158706;23;20025;-84
2023/05/07 03:49:50;;;;;;;2.53;1.60;;;10.60;99.90;;;;;;6134211;23;20380;-81
2023/05/07 03:52:16;;;;;;;6.03;2.75;;;10.60;99.90;;;;;;6159402;23;20021;-81
2023/05/07 03:54:41;;;;;;;5.50;2.37;;;10.60;99.90;;;;;;6109707;23;20020;-81
2023/05/07 03:57:07;;;;;;;8.40;2.63;;;10.60;99.90;;;;;;6185701;23;20241;-81
2023/05/07 03:59:33;;;;;;;3.57;2.30;;;10.60;99.90;;;;;;6184768;23;20017;-81
2023/05/07 04:01:58;;;;;;;4.23;1.63;;;10.60;99.90;;;;;;6158851;23;20021;-81
2023/05/07 04:04:24;;;;;;;5.10;1.90;;;10.60;99.90;;;;;;6185317;23;20017;-81
2023/05/07 04:06:50;;;;;;;3.65;1.98;;;10.50;99.90;;;;;;6184575;23;20047;-81
2023/05/07 04:09:16;;;;;;;5.63;2.30;;;10.60;99.90;;;;;;6158915;23;20021;-81
2023/05/07 04:11:41;;;;;;;6.00;2.50;;;10.50;99.90;;;;;;6184102;23;20067;-81
2023/05/07 04:14:07;;;;;;;4.47;2.70;;;10.50;99.90;;;;;;6134086;23;20063;-81
2023/05/07 04:16:35;;;;;;;4.70;1.80;;;10.50;99.90;;;;;;6133799;23;20021;-81
2023/05/07 04:19:00;;;;;;;4.57;2.33;;;10.50;99.90;;;;;;6185008;23;20064;-81
2023/05/07 04:21:26;;;;;;;3.20;1.50;;;10.50;99.90;;;;;;6158571;23;20021;-81
2023/05/07 04:23:52;;;;;;;5.40;3.03;;;10.50;99.90;;;;;;6184656;23;20028;-80
2023/05/07 04:26:18;;;;;;;4.27;2.43;;;10.50;99.90;;;;;;6185146;23;20044;-80
2023/05/07 04:28:43;;;;;;;3.87;3.03;;;10.50;99.90;;;;;;6158425;23;20052;-81
2023/05/07 04:31:09;;;;;;;2.60;1.60;;;10.50;99.90;;;;;;6184774;23;20021;-80
2023/05/07 04:33:35;;;;;;;4.30;2.73;;;10.50;99.90;;;;;;6184751;23;20036;-80
2023/05/07 04:36:04;;;;;;;3.97;2.10;;;10.50;99.90;;;;;;6134310;23;20036;-80
2023/05/07 04:38:31;;;;;;;3.35;1.55;;;10.50;99.90;;;;;;6184982;23;20021;-85
2023/05/07 04:40:57;;;;;;;;;;;10.50;99.90;;;;;;6134542;23;20100;-81
2023/05/07 04:43:23;;;;;;;3.95;1.73;;;10.50;99.90;;;;;;6186643;23;19920;-80
2023/05/07 04:45:52;;;;;;;3.50;2.08;;;10.50;99.90;;;;;;6159840;23;20028;-80
2023/05/07 04:48:19;;;;;;;3.38;1.60;;;10.50;99.90;;;;;;6136159;23;20529;-80
2023/05/07 04:50:48;;;;;;;2.60;1.25;;;10.50;99.90;;;;;;6186515;23;20334;-81
2023/05/07 04:53:13;;;;;;;2.97;1.55;;;10.50;99.90;;;;;;6160627;23;20055;-81
2023/05/07 04:55:39;;;;;;;6.30;1.90;;;10.50;99.90;;;;;;6186499;23;20013;-81
2023/05/07 04:58:04;;;;;;;3.30;2.00;;;10.50;99.90;;;;;;6161103;23;20017;-81
2023/05/07 05:00:30;;;;;;;5.70;2.47;;;10.50;99.90;;;;;;6186618;23;20028;-81
2023/05/07 05:02:56;;;;;;;7.13;2.25;;;10.50;99.90;;;;;;6159969;23;20028;-81
2023/05/07 05:05:22;;;;;;;4.40;1.93;;;10.50;99.90;;;;;;6160552;23;20346;-81
2023/05/07 05:07:48;;;;;;;2.93;2.10;;;10.50;99.90;;;;;;6160031;23;20021;-81
2023/05/07 05:10:13;;;;;;;5.27;2.70;;;10.50;99.90;;;;;;6186332;23;20021;-81
2023/05/07 05:12:39;;;;;;;3.03;2.00;;;10.50;99.90;;;;;;6186390;23;20017;-81
2023/05/07 05:15:06;;;;;;;4.10;2.17;;;10.50;99.90;;;;;;6186220;23;20028;-81
2023/05/07 05:17:31;;;;;;;3.75;2.30;;;10.50;99.90;;;;;;6160408;23;20346;-81
2023/05/07 05:19:57;;;;;;;5.57;3.57;;;10.50;99.90;;;;;;6186212;23;20024;-82
2023/05/07 05:22:23;;;;;;;2.47;1.80;;;10.50;99.90;;;;;;6186756;23;20024;-81
2023/05/07 05:24:48;;;;;;;7.30;2.97;;;10.50;99.90;;;;;;6186138;23;20385;-81
2023/05/07 05:27:14;;;;;;;5.83;2.20;;;10.60;99.90;;;;;;6111560;23;20056;-81
2023/05/07 05:29:40;;;;;;;3.13;1.60;;;10.50;99.90;;;;;;6159395;23;20017;-81
2023/05/07 05:32:05;;;;;;;4.27;2.20;;;10.50;99.90;;;;;;6135924;23;20021;-81
2023/05/07 05:34:32;;;;;;;4.33;1.93;;;10.60;99.90;;;;;;6160233;23;20339;-81
2023/05/07 05:36:59;;;;;;;2.20;1.52;;;10.60;99.90;;;;;;6160288;23;20008;-81
2023/05/07 05:39:25;;;;;;;3.60;2.47;;;10.60;99.90;;;;;;6160335;23;20021;-81
2023/05/07 05:41:50;;;;;;;4.23;1.97;;;10.60;99.90;;;;;;6159950;23;20123;-81
2023/05/07 05:44:16;;;;;;;1.53;1.40;;;10.50;99.90;;;;;;6159949;23;20021;-81
2023/05/07 05:46:42;;;;;;;2.60;1.73;;;10.60;99.90;;;;;;6159750;23;20067;-82
2023/05/07 05:49:08;;;;;;;2.83;1.90;;;10.60;99.90;;;;;;6186506;23;20457;-81
2023/05/07 05:51:34;;;;;;;3.47;1.50;;;10.60;99.90;;;;;;6186436;23;20240;-81
2023/05/07 05:53:59;;;;;;;3.57;2.07;;;10.60;99.90;;;;;;6135169;23;20052;-81
2023/05/07 05:56:25;;;;;;;3.20;1.97;;;10.60;99.90;;;;;;6160107;23;20111;-81
2023/05/07 05:58:51;;;;;;;4.20;1.52;;;10.80;99.90;;;;;;6158924;23;20021;-81
2023/05/07 06:01:18;;;;;;;3.90;1.77;;;10.70;99.90;;;;;;6160288;23;20085;-81
2023/05/07 06:03:44;;;;;;;2.30;1.50;;;10.70;99.90;;;;;;6185835;23;20241;-83
2023/05/07 06:06:10;;;;;;;4.40;2.87;;;10.70;99.90;;;;;;6135353;23;20032;-80
2023/05/07 06:08:35;;;;;;;5.80;1.77;;;10.80;99.90;;;;;;6160182;23;20027;-81
2023/05/07 06:11:02;;;;;;;4.27;2.30;;;10.80;99.90;;;;;;6159135;23;20032;-81
2023/05/07 06:13:28;;;;;;;4.35;1.75;;;10.80;99.90;;;;;;6159556;23;20028;-82
2023/05/07 06:15:54;;;;;;;3.07;2.30;;;10.90;99.90;;;;;;6185654;23;20013;-81
2023/05/07 06:18:19;;;;;;;1.60;1.10;;;10.90;99.90;;;;;;6186673;23;20052;-81
2023/05/07 06:20:45;;;;;;;2.63;1.63;;;10.90;99.90;;;;;;6134999;23;20017;-83
2023/05/07 06:23:11;;;;;;;5.07;2.13;;;10.90;99.90;;;;;;6186143;23;20024;-81
2023/05/07 06:25:37;;;;;;;5.27;3.13;;;10.90;99.90;;;;;;6159807;23;20017;-81
2023/05/07 06:28:02;;;;;;;3.93;2.30;;;10.90;99.90;;;;;;6159037;23;20446;-81
2023/05/07 06:30:28;;;;;;;5.67;1.73;;;10.90;99.90;;;;;;6186069;23;20658;-82
2023/05/07 06:32:54;;;;;;;5.23;1.80;;;10.90;99.90;;;;;;6188659;23;20523;-83
2023/05/07 06:35:19;;;;;;;3.53;2.00;;;10.90;99.90;;;;;;6159145;23;20071;-82
2023/05/07 06:37:45;;;;;;;3.03;2.13;;;10.90;99.90;;;;;;6159298;23;20032;-82
2023/05/07 06:40:11;;;;;;;7.00;2.67;;;10.90;99.90;;;;;;6185549;23;20021;-82
2023/05/07 06:42:37;;;;;;;3.85;2.03;;;10.90;99.90;;;;;;6110678;23;20438;-83
2023/05/07 06:45:03;;;;;;;4.03;1.98;;;10.90;99.90;;;;;;6134473;23;20028;-83
2023/05/07 06:47:29;;;;;;;2.85;1.13;;;10.90;99.90;;;;;;6159820;23;20021;-82
2023/05/07 06:49:55;;;;;;;2.47;1.77;;;11.00;99.90;;;;;;6188314;23;20472;-82
2023/05/07 06:52:21;;;;;;;2.30;1.73;;;11.00;99.90;;;;;;6159759;23;20100;-82
2023/05/07 06:54:46;;;;;;;2.97;1.80;;;11.00;99.90;;;;;;6185829;23;20023;-81
2023/05/07 06:57:12;;;;;;;5.47;2.90;;;11.00;99.90;;;;;;6158767;23;20460;-79
2023/05/07 06:59:38;;;;;;;4.13;2.37;;;11.00;99.90;;;;;;6159027;23;20492;-80
2023/05/07 07:02:04;;;;;;;5.67;1.73;;;11.00;99.90;;;;;;6161685;23;20078;-81
2023/05/07 07:04:29;;;;;;;4.30;2.17;;;11.00;99.90;;;;;;6159156;23;20461;-79
2023/05/07 07:06:56;;;;;;;4.20;2.43;;;11.00;99.90;;;;;;6158589;23;20021;-79
2023/05/07 07:09:22;;;;;;;;;;;11.00;99.90;;;;;;6159306;23;20291;-78
2023/05/07 07:11:47;;;;;;;4.80;2.00;;;11.00;99.90;;;;;;6153976;23;19916;-79
2023/05/07 07:14:14;;;;;;;1.87;1.60;;;11.10;99.90;;;;;;6129467;23;20076;-80
2023/05/07 07:16:40;;;;;;;4.72;1.98;;;11.10;99.90;;;;;;6130037;23;20316;-79
2023/05/07 07:19:06;;;;;;;3.92;1.80;;;11.20;99.90;;;;;;6155331;23;20017;-80
2023/05/07 07:21:31;;;;;;;2.77;1.77;;;11.20;99.90;;;;;;6154761;23;20280;-80
2023/05/07 07:23:57;;;;;;;4.20;2.17;;;11.20;99.90;;;;;;6155346;23;20028;-79
2023/05/07 07:26:23;;;;;;;4.00;1.70;;;11.20;99.90;;;;;;6155439;23;20017;-79
2023/05/07 07:28:49;;;;;;;2.43;1.43;;;11.20;99.90;;;;;;6155037;23;20029;-79
2023/05/07 07:31:15;;;;;;;2.67;1.70;;;11.20;99.90;;;;;;6153752;23;20024;-80
2023/05/07 07:33:41;;;;;;;3.17;1.67;;;11.20;99.90;;;;;;6129683;23;20021;-80
2023/05/07 07:36:07;;;;;;;6.95;2.88;;;11.30;99.90;;;;;;6153932;23;20029;-79
2023/05/07 07:38:33;;;;;;;3.67;2.47;;;11.30;99.90;;;;;;6155543;23;20028;-78
2023/05/07 07:41:00;;;;;;;2.72;2.08;;;11.30;99.90;;;;;;6153319;23;20024;-78
2023/05/07 07:43:25;;;;;;;6.32;2.03;;;11.30;99.90;;;;;;6155633;23;20017;-77
2023/05/07 07:45:51;;;;;;;3.63;1.73;;;11.30;99.90;;;;;;6129613;23;20028;-77
2023/05/07 07:48:17;;;;;;;2.53;1.90;;;11.40;99.90;;;;;;6153384;23;20122;-77
2023/05/07 07:50:43;;;;;;;2.43;1.77;;;11.40;99.90;;;;;;6129416;23;20032;-78
2023/05/07 07:53:08;;;;;;;3.73;3.30;;;11.40;99.90;;;;;;6155079;23;20063;-77
2023/05/07 07:55:38;;;;;;;3.17;2.30;;;11.40;99.90;;;;;;6154053;23;20053;-77
2023/05/07 07:58:04;;;;;;;5.70;3.40;;;11.40;99.90;;;;;;6155050;23;20028;-77
2023/05/07 08:00:30;;;;;;;3.27;2.13;;;11.50;99.90;;;;;;6153848;23;20021;-77
2023/05/07 08:02:55;;;;;;;3.67;1.53;;;11.50;99.90;;;;;;6154116;23;20454;-77
2023/05/07 08:05:21;;;;;;;2.83;2.10;;;11.60;99.90;;;;;;6154984;23;20030;-78
2023/05/07 08:07:51;;;;;;;4.50;2.43;;;11.60;99.90;;;;;;6153774;23;20096;-77
2023/05/07 08:10:21;;;;;;;5.45;1.90;;;11.70;99.90;;;;;;6129580;23;20067;-78
2023/05/07 08:12:50;;;;;;;5.28;2.17;;;11.80;99.90;;;;;;6155260;23;20025;-77
2023/05/07 08:15:16;;;;;;;5.00;2.70;;;11.90;99.90;;;;;;6153460;23;20025;-78
2023/05/07 08:17:43;;;;;;;3.70;1.80;;;12.00;99.90;;;;;;6153403;23;20125;-77
2023/05/07 08:20:09;;;;;;;2.95;2.20;;;12.00;99.90;;;;;;6153514;23;20053;-77
2023/05/07 08:22:35;;;;;;;2.78;2.13;;;12.00;99.90;;;;;;6155252;23;20028;-78
2023/05/07 08:25:01;;;;;;;4.03;1.95;;;12.10;99.90;;;;;;6153639;23;20092;-82
2023/05/07 08:27:27;;;;;;;6.60;2.00;;;12.20;99.90;;;;;;6153559;23;20013;-77
2023/05/07 08:29:53;;;;;;;3.97;2.17;;;12.30;99.90;;;;;;6153810;23;20025;-76
2023/05/07 08:32:19;;;;;;;5.57;2.08;;;12.40;99.90;;;;;;6153041;23;20017;-80
2023/05/07 08:34:45;;;;;;;4.23;2.87;;;12.40;99.90;;;;;;6155322;23;20029;-75
2023/05/07 08:37:10;;;;;;;4.13;1.90;;;12.50;99.90;;;;;;6153498;23;20021;-77
2023/05/07 08:39:36;;;;;;;3.77;1.93;;;12.50;99.90;;;;;;6129157;23;20064;-78
2023/05/07 08:42:06;;;;;;;4.73;2.13;;;12.50;99.90;;;;;;6155300;23;20025;-77
2023/05/07 08:44:34;;;;;;;3.67;1.70;;;12.50;99.90;;;;;;6153837;23;20092;-78
2023/05/07 08:47:02;;;;;;;5.03;2.67;;;12.60;99.90;;;;;;6129403;23;20014;-76
2023/05/07 08:49:28;;;;;;;4.00;2.15;;;12.60;99.90;;;;;;6151929;23;20028;-79
2023/05/07 08:51:55;;;;;;;5.70;2.63;;;12.60;99.90;;;;;;6128197;23;20025;-79
2023/05/07 08:54:22;;;;;;;3.47;2.38;;;12.60;99.90;;;;;;6128466;23;20021;-76
2023/05/07 08:56:48;;;;;;;5.50;2.88;;;12.60;99.90;;;;;;6154847;23;20013;-79
2023/05/07 08:59:14;;;;;;;3.95;2.28;;;12.60;99.90;;;;;;6152896;23;20407;-79
2023/05/07 09:01:39;;;;;;;1.70;1.37;;;12.70;99.90;;;;;;6154196;23;20049;-79
2023/05/07 09:04:06;;;;;;;5.07;2.50;;;12.80;99.90;;;;;;6152760;23;20788;-81
2023/05/07 09:06:33;;;;;;;4.38;1.77;;;12.90;99.90;;;;;;6153066;23;20022;-79
2023/05/07 09:09:01;;;;;;;3.53;1.60;;;13.10;99.90;;;;;;6155034;23;20028;-82
2023/05/07 09:11:27;;;;;;;3.97;2.17;;;13.30;99.90;;;;;;6148074;23;20595;-80
2023/05/07 09:14:02;;;;;;;3.47;2.28;;;13.50;99.90;;;;;;6153241;23;20051;-79
2023/05/07 09:16:30;;;;;;;3.13;1.95;;;13.70;99.90;;;;;;6155908;23;20249;-80
2023/05/07 09:18:58;;;;;;;4.68;2.58;;;14.00;99.90;;;;;;6153505;23;20022;-78
2023/05/07 09:21:24;;;;;;;2.65;1.95;;;14.10;99.90;;;;;;6152841;23;20013;-79
2023/05/07 09:23:55;;;;;;;2.38;2.00;;;14.00;99.90;;;;;;6153731;23;20469;-78
2023/05/07 09:26:25;;;;;;;3.85;1.52;;;14.20;99.90;;;;;;6152664;23;20017;-78
2023/05/07 09:28:51;;;;;;;3.53;1.38;;;14.30;99.90;;;;;;6154569;23;20044;-79
2023/05/07 09:31:17;;;;;;;4.85;2.00;;;14.40;99.90;;;;;;6130292;23;20076;-79
2023/05/07 09:33:42;;;;;;;3.93;2.97;;;14.50;99.90;;;;;;6155334;23;20026;-80
2023/05/07 09:36:09;;;;;;;1.65;1.15;;;14.70;99.90;;;;;;6179720;23;20025;-79
2023/05/07 09:38:36;;;;;;;3.30;2.10;;;14.90;99.90;;;;;;6156344;23;20071;-79
2023/05/07 09:41:10;;;;;;;3.28;2.13;;;15.20;99.90;;;;;;6156307;23;20390;-79
2023/05/07 09:43:38;;;;;;;3.47;2.38;;;15.20;99.90;;;;;;6154206;23;20017;-79
2023/05/07 09:46:12;;;;;;;2.50;1.30;;;15.20;99.90;;;;;;6154959;23;20039;-78
2023/05/07 09:48:39;;;;;;;5.13;2.47;;;15.10;99.90;;;;;;6154984;23;20065;-79
2023/05/07 09:51:29;;;;;;;2.10;1.25;;;15.30;99.90;;;;;;6155053;23;20022;-79
2023/05/07 09:53:56;;;;;;;2.17;1.67;;;15.50;99.90;;;;;;6140397;23;20458;-79
2023/05/07 09:56:24;;;;;;;2.67;1.63;;;15.80;99.90;;;;;;6158875;23;20026;-79
2023/05/07 09:58:52;;;;;;;2.28;1.30;;;16.00;99.90;;;;;;6159946;23;20029;-78
2023/05/07 10:01:21;;;;;;;2.95;1.48;;;16.00;99.90;;;;;;6155540;23;20522;-79
2023/05/07 10:03:49;;;;;;;2.45;1.88;;;16.20;99.90;;;;;;6155975;23;20017;-77
2023/05/07 10:06:16;;;;;;;3.00;1.77;;;16.30;99.90;;;;;;6155958;23;20139;-79
2023/05/07 10:08:43;;;;;;;3.70;2.13;;;16.20;99.90;;;;;;6156523;23;20018;-78
2023/05/07 10:11:09;;;;;;;2.80;2.10;;;16.10;99.90;;;;;;6129885;23;20538;-80
2023/05/07 10:13:37;;;;;;;2.35;1.40;;;16.20;99.90;;;;;;6156024;23;20613;-81
2023/05/07 10:16:05;;;;;;;2.72;1.83;;;16.40;99.90;;;;;;6156170;23;20063;-78
2023/05/07 10:18:32;;;;;;;3.90;1.80;;;16.50;99.90;;;;;;6153601;23;20088;-79
2023/05/07 10:21:23;;;;;;;3.90;1.90;;;16.70;99.90;;;;;;6156017;23;20021;-79
2023/05/07 10:23:52;;;;;;;2.42;1.52;;;16.80;99.90;;;;;;6156176;23;20025;-79
2023/05/07 10:26:22;;;;;;;4.07;1.88;;;16.80;99.90;;;;;;6153345;23;20057;-83
2023/05/07 10:28:54;;;;;;;3.20;1.70;;;16.80;99.90;;;;;;6154779;23;20020;-78
2023/05/07 10:31:44;;;;;;;3.75;1.83;;;16.90;99.90;;;;;;6154503;23;20346;-79
2023/05/07 10:34:13;;;;;;;2.72;1.48;;;17.00;99.90;;;;;;6130175;23;20021;-79
2023/05/07 10:36:39;;;;;;;3.10;1.92;;;17.20;99.90;;;;;;6154103;23;20207;-78
2023/05/07 10:39:06;;;;;;;2.72;1.73;;;17.40;99.90;;;;;;6154170;23;20076;-78
2023/05/07 10:41:32;;;;;;;2.35;1.83;;;17.40;99.90;;;;;;6154021;23;20105;-78
2023/05/07 10:44:01;;;;;;;2.25;1.40;;;17.50;99.90;;;;;;6154693;23;20026;-75
2023/05/07 10:46:27;;;;;;;2.97;1.50;;;17.50;99.90;;;;;;6154152;23;20093;-77
2023/05/07 10:49:02;;;;;;;3.53;1.42;;;17.80;99.90;;;;;;6154588;23;20079;-78
2023/05/07 10:51:30;;;;;;;2.40;2.00;;;17.90;99.90;;;;;;6153693;23;20021;-79
2023/05/07 10:54:11;;;;;;;2.92;1.45;;;18.00;99.90;;;;;;6129665;23;20076;-79
2023/05/07 10:56:42;;;;;;;3.53;1.70;;;18.40;99.90;;;;;;6178742;23;20465;-78
2023/05/07 10:59:20;;;;;;;3.17;1.52;;;18.60;99.90;;;;;;6130100;23;20017;-80
2023/05/07 11:01:58;;;;;;;1.65;1.13;;;18.80;99.90;;;;;;6177763;23;20018;-79
2023/05/07 11:04:26;;;;;;;2.17;1.25;;;19.00;99.90;;;;;;6154071;23;20028;-82
2023/05/07 11:07:08;;;;;;;2.83;1.48;;;19.20;99.90;;;;;;6154348;23;20018;-78
2023/05/07 11:09:52;;;;;;;2.22;1.30;;;19.20;99.90;;;;;;6129305;23;20100;-78
2023/05/07 11:12:37;;;;;;;2.30;1.90;;;19.10;99.90;;;;;;6179244;23;20080;-78
2023/05/07 11:15:10;;;;;;;2.42;1.60;;;19.00;99.90;;;;;;6154364;23;20029;-78
2023/05/07 11:17:56;;;;;;;2.88;1.92;;;18.90;99.90;;;;;;6155246;23;20446;-78
2023/05/07 11:20:45;;;;;;;1.08;1.00;;;19.00;99.90;;;;;;6155960;23;20076;-78
2023/05/07 11:23:33;;;;;;;2.85;1.63;;;19.10;99.90;;;;;;6154727;23;20021;-78
2023/05/07 11:26:06;;;;;;;1.80;1.52;;;19.20;99.90;;;;;;6178911;23;20446;-78
2023/05/07 11:28:38;;;;;;;2.15;1.60;;;19.00;99.90;;;;;;6155311;23;20022;-78
2023/05/07 11:31:04;;;;;;;2.05;1.25;;;19.00;99.90;;;;;;6156100;23;20104;-78
2023/05/07 11:33:34;;;;;;;2.67;1.58;;;18.90;99.90;;;;;;6153814;23;20018;-78
2023/05/07 11:36:02;;;;;;;1.40;1.30;;;18.20;99.90;;;;;;6154203;23;20017;-78
2023/05/07 11:38:35;;;;;;;3.72;2.28;;;18.80;99.90;;;;;;6129253;23;20022;-80
2023/05/07 11:41:02;;;;;;;3.22;1.55;;;18.80;99.90;;;;;;6155766;23;20049;-78
2023/05/07 11:43:28;;;;;;;2.58;1.60;;;18.80;99.90;;;;;;6153977;23;20052;-81
2023/05/07 11:45:53;;;;;;;2.45;1.70;;;18.70;99.90;;;;;;6129293;23;20080;-78
2023/05/07 11:48:21;;;;;;;2.47;1.20;;;18.40;99.90;;;;;;6178953;23;20020;-78
2023/05/07 11:50:55;;;;;;;2.90;2.10;;;18.20;99.90;;;;;;6153573;23;20493;-78
2023/05/07 11:53:25;;;;;;;1.25;1.10;;;18.10;99.90;;;;;;6155852;23;20040;-78
2023/05/07 11:55:55;;;;;;;1.70;1.08;;;18.10;99.90;;;;;;6155393;23;20044;-78
2023/05/07 11:58:23;;;;;;;1.75;1.42;;;18.30;99.90;;;;;;6154233;23;20017;-78
2023/05/07 12:00:53;;;;;;;1.95;1.70;;;18.50;99.90;;;;;;6153620;23;20258;-78
2023/05/07 12:03:19;;;;;;;2.83;1.42;;;18.70;99.90;;;;;;6153993;23;20018;-78
2023/05/07 12:05:45;;;;;;;;;;;19.00;99.90;;;;;;6129632;23;20115;-78
2023/05/07 12:08:17;;;;;;;2.03;1.58;;;18.90;99.90;;;;;;6153900;23;19916;-78
2023/05/07 12:10:45;;;;;;;2.00;1.40;;;18.80;99.90;;;;;;6167302;23;20060;-78
2023/05/07 12:13:15;;;;;;;2.65;2.05;;;18.80;99.90;;;;;;6158953;23;20036;-78
2023/05/07 12:15:42;;;;;;;2.53;1.55;;;18.80;99.90;;;;;;6158494;23;20020;-79
2023/05/07 12:18:08;;;;;;;2.40;1.40;;;18.90;99.90;;;;;;6184704;23;20462;-79
2023/05/07 12:20:37;;;;;;;0.80;0.75;;;19.00;99.90;;;;;;6158320;23;20025;-82
2023/05/07 12:23:03;;;;;;;2.65;1.10;;;19.10;99.90;;;;;;6185070;23;20118;-78
2023/05/07 12:25:35;;;;;;;2.67;1.65;;;19.00;99.90;;;;;;6158590;23;20528;-79
2023/05/07 12:28:03;;;;;;;2.17;1.45;;;19.10;99.90;;;;;;6185022;23;20497;-79
2023/05/07 12:30:29;;;;;;;2.03;1.40;;;19.10;99.90;;;;;;6134154;23;20024;-79
2023/05/07 12:32:55;;;;;;;1.73;1.63;;;19.20;99.90;;;;;;6184643;23;20013;-79
2023/05/07 12:35:30;;;;;;;2.42;1.30;;;19.20;99.90;;;;;;6185060;23;20021;-79
2023/05/07 12:37:58;;;;;;;2.35;1.15;;;19.30;99.90;;;;;;6184526;23;20017;-79
2023/05/07 12:40:24;;;;;;;2.55;1.20;;;19.40;99.90;;;;;;6158877;23;20020;-79
2023/05/07 12:42:54;;;;;;;1.75;1.00;;;19.60;99.90;;;;;;6158471;23;20366;-79
2023/05/07 12:45:20;;;;;;;2.53;1.38;;;19.90;99.90;;;;;;6158768;23;20013;-79
2023/05/07 12:47:47;;;;;;;2.05;1.40;;;19.90;99.90;;;;;;6158381;23;20020;-79